createdAt,value
2018-09-03T00:02:04.783Z,19.49
2018-09-03T00:07:00.682Z,19.40
2018-09-03T00:11:56.455Z,19.36
2018-09-03T00:16:53.309Z,19.33
2018-09-03T00:21:48.724Z,19.21
2018-09-03T00:26:44.516Z,19.08
2018-09-03T00:31:41.218Z,19.00
2018-09-03T00:36:36.562Z,19.02
2018-09-03T00:41:32.408Z,18.88
2018-09-03T00:46:28.296Z,18.93
2018-09-03T00:51:24.554Z,18.92
2018-09-03T00:56:20.733Z,18.95
2018-09-03T01:01:16.733Z,18.84
2018-09-03T01:06:14.192Z,18.92
2018-09-03T01:11:10.763Z,18.93
2018-09-03T01:16:06.450Z,18.89
2018-09-03T01:21:02.233Z,18.90
2018-09-03T01:25:57.772Z,18.96
2018-09-03T01:30:53.548Z,18.90
2018-09-03T01:35:49.401Z,18.80
2018-09-03T01:40:45.344Z,18.78
2018-09-03T01:45:40.867Z,18.80
2018-09-03T01:50:37.138Z,18.81
2018-09-03T01:55:32.899Z,18.83
2018-09-03T02:00:28.744Z,18.90
2018-09-03T02:05:25.500Z,18.83
2018-09-03T02:10:21.304Z,18.81
2018-09-03T02:15:17.365Z,18.90
2018-09-03T02:20:14.293Z,18.83
2018-09-03T02:25:09.883Z,18.80
2018-09-03T02:30:05.774Z,18.78
2018-09-03T02:35:01.912Z,18.75
2018-09-03T02:39:58.049Z,18.73
2018-09-03T02:44:54.108Z,18.65
2018-09-03T02:49:49.964Z,18.65
2018-09-03T02:54:47.245Z,18.68
2018-09-03T02:59:43.003Z,18.65
2018-09-03T03:04:38.582Z,18.73
2018-09-03T03:09:34.732Z,18.65
2018-09-03T03:14:30.759Z,18.58
2018-09-03T03:19:26.394Z,18.56
2018-09-03T03:24:22.140Z,18.56
2018-09-03T03:29:19.516Z,18.60
2018-09-03T03:34:15.527Z,18.52
2018-09-03T03:39:11.308Z,18.43
2018-09-03T03:44:07.184Z,18.41
2018-09-03T03:49:03.897Z,18.43
2018-09-03T03:53:59.377Z,18.45
2018-09-03T03:58:55.229Z,18.35
2018-09-03T04:03:51.597Z,18.28
2018-09-03T04:08:48.474Z,18.22
2018-09-03T04:13:43.895Z,18.28
2018-09-03T04:18:39.488Z,18.22
2018-09-03T04:23:35.613Z,18.28
2018-09-03T04:28:32.573Z,18.22
2018-09-03T04:33:28.012Z,18.15
2018-09-03T04:38:25.115Z,18.15
2018-09-03T04:43:20.768Z,18.10
2018-09-03T04:48:16.301Z,18.15
2018-09-03T04:53:13.051Z,18.11
2018-09-03T04:58:08.588Z,18.19
2018-09-03T05:03:04.387Z,18.23
2018-09-03T05:08:00.152Z,18.22
2018-09-03T05:12:57.055Z,18.25
2018-09-03T05:17:52.590Z,18.19
2018-09-03T05:22:48.687Z,18.25
2018-09-03T05:27:44.478Z,18.33
2018-09-03T05:32:40.166Z,18.33
2018-09-03T05:37:36.100Z,18.33
2018-09-03T05:42:31.992Z,18.34
2018-09-03T05:47:28.242Z,18.35
2018-09-03T05:52:24.337Z,18.23
2018-09-03T05:57:20.480Z,18.41
2018-09-03T06:02:16.674Z,18.37
2018-09-03T06:07:12.616Z,18.44
2018-09-03T06:12:08.685Z,18.52
2018-09-03T06:17:05.464Z,18.43
2018-09-03T06:22:00.817Z,18.44
2018-09-03T06:26:57.261Z,18.31
2018-09-03T06:31:53.064Z,18.40
2018-09-03T06:36:49.278Z,18.41
2018-09-03T06:41:46.394Z,18.58
2018-09-03T06:46:42.980Z,18.68
2018-09-03T06:51:38.497Z,18.65
2018-09-03T06:56:34.615Z,18.65
2018-09-03T07:01:30.415Z,18.53
2018-09-03T07:06:26.154Z,18.53
2018-09-03T07:11:21.892Z,18.43
2018-09-03T07:16:17.680Z,18.38
2018-09-03T07:21:13.543Z,18.40
2018-09-03T07:26:09.678Z,18.26
2018-09-03T07:31:05.653Z,18.35
2018-09-03T07:36:01.564Z,18.47
2018-09-03T07:40:57.199Z,18.45
2018-09-03T07:45:53.508Z,18.43
2018-09-03T07:50:51.118Z,18.62
2018-09-03T07:55:47.979Z,18.71
2018-09-03T08:00:43.919Z,18.89
2018-09-03T08:05:40.166Z,19.07
2018-09-03T08:10:37.082Z,19.14
2018-09-03T08:15:33.744Z,19.21
2018-09-03T08:20:29.859Z,19.26
2018-09-03T08:25:26.210Z,19.63
2018-09-03T08:30:22.888Z,19.82
2018-09-03T08:35:19.192Z,20.07
2018-09-03T08:40:16.026Z,19.99
2018-09-03T08:45:11.867Z,20.14
2018-09-03T08:50:08.703Z,20.36
2018-09-03T08:55:04.340Z,20.36
2018-09-03T09:00:00.580Z,20.13
2018-09-03T09:04:58.074Z,20.28
2018-09-03T09:09:54.895Z,20.29
2018-09-03T09:14:51.486Z,20.40
2018-09-03T09:19:46.982Z,20.36
2018-09-03T09:24:42.712Z,20.36
2018-09-03T09:29:38.926Z,20.39
2018-09-03T09:34:34.853Z,20.60
2018-09-03T09:39:32.076Z,20.65
2018-09-03T09:44:27.584Z,20.84
2018-09-03T09:49:23.458Z,20.93
2018-09-03T09:54:19.567Z,21.25
2018-09-03T09:59:16.675Z,21.64
2018-09-03T10:04:12.747Z,21.73
2018-09-03T10:09:08.959Z,22.15
2018-09-03T10:14:05.902Z,22.72
2018-09-03T10:19:02.773Z,23.31
2018-09-03T10:24:00.083Z,23.55
2018-09-03T10:28:57.734Z,23.95
2018-09-03T10:33:54.754Z,24.74
2018-09-03T10:38:53.033Z,24.99
2018-09-03T10:43:48.968Z,24.30
2018-09-03T10:48:44.621Z,23.59
2018-09-03T10:53:39.732Z,23.36
2018-09-03T10:58:36.458Z,23.17
2018-09-03T11:03:31.611Z,23.36
2018-09-03T11:08:27.168Z,23.25
2018-09-03T11:13:22.578Z,23.12
2018-09-03T11:18:19.493Z,23.20
2018-09-03T11:23:15.314Z,23.09
2018-09-03T11:28:11.348Z,23.18
2018-09-03T11:33:08.343Z,22.93
2018-09-03T11:38:04.211Z,23.20
2018-09-03T11:43:01.017Z,23.20
2018-09-03T11:47:57.780Z,23.24
2018-09-03T11:52:54.241Z,23.28
2018-09-03T11:57:50.996Z,23.50
2018-09-03T12:02:47.763Z,23.95
2018-09-03T12:07:45.256Z,24.23
2018-09-03T12:12:41.367Z,23.86
2018-09-03T12:17:37.710Z,24.05
2018-09-03T12:22:33.498Z,24.17
2018-09-03T12:27:29.099Z,23.93
2018-09-03T12:32:25.392Z,23.99
2018-09-03T12:37:21.203Z,24.08
2018-09-03T12:42:16.936Z,23.96
2018-09-03T12:47:12.894Z,23.93
2018-09-03T12:52:08.961Z,23.91
2018-09-03T12:57:04.489Z,23.84
2018-09-03T13:02:00.723Z,23.96
2018-09-03T13:06:56.580Z,23.56
2018-09-03T13:11:52.342Z,23.59
2018-09-03T13:16:48.162Z,23.51
2018-09-03T13:21:44.005Z,23.46
2018-09-03T13:26:40.519Z,23.58
2018-09-03T13:31:36.465Z,23.48
2018-09-03T13:36:33.976Z,23.41
2018-09-03T13:41:29.634Z,23.41
2018-09-03T13:46:25.472Z,23.23
2018-09-03T13:51:21.427Z,23.21
2018-09-03T13:56:17.437Z,23.24
2018-09-03T14:01:13.409Z,23.56
2018-09-03T14:06:09.461Z,23.54
2018-09-03T14:11:05.412Z,23.55
2018-09-03T14:16:01.210Z,23.44
2018-09-03T14:20:57.832Z,23.48
2018-09-03T14:25:54.080Z,23.62
2018-09-03T14:30:51.070Z,23.74
2018-09-03T14:35:48.050Z,23.83
2018-09-03T14:40:43.665Z,23.74
2018-09-03T14:45:40.484Z,23.62
2018-09-03T14:50:36.152Z,23.74
2018-09-03T14:55:32.182Z,23.78
2018-09-03T15:00:28.365Z,23.73
2018-09-03T15:05:24.422Z,23.71
2018-09-03T15:10:20.743Z,23.48
2018-09-03T15:15:16.301Z,23.25
2018-09-03T15:20:12.149Z,23.25
2018-09-03T15:25:08.643Z,23.27
2018-09-03T15:30:05.422Z,23.36
2018-09-03T15:35:01.125Z,23.32
2018-09-03T15:39:57.257Z,23.25
2018-09-03T15:44:53.177Z,23.32
2018-09-03T15:49:49.147Z,23.48
2018-09-03T15:54:45.413Z,23.63
2018-09-03T15:59:41.761Z,23.71
2018-09-03T16:04:37.731Z,23.78
2018-09-03T16:09:33.865Z,23.77
2018-09-03T16:14:30.076Z,23.73
2018-09-03T16:19:25.932Z,23.73
2018-09-03T16:24:22.107Z,23.69
2018-09-03T16:29:17.841Z,23.54
2018-09-03T16:34:13.580Z,23.56
2018-09-03T16:39:09.489Z,23.51
2018-09-03T16:44:05.255Z,23.37
2018-09-03T16:49:01.492Z,23.28
2018-09-03T16:53:57.436Z,23.28
2018-09-03T16:58:53.236Z,23.24
2018-09-03T17:03:48.792Z,23.20
2018-09-03T17:08:44.785Z,23.12
2018-09-03T17:13:40.757Z,23.05
2018-09-03T17:18:36.445Z,23.02
2018-09-03T17:23:32.880Z,22.88
2018-09-03T17:28:28.509Z,22.81
2018-09-03T17:33:25.431Z,22.59
2018-09-03T17:38:20.889Z,22.53
2018-09-03T17:43:16.575Z,22.39
2018-09-03T17:48:12.743Z,22.33
2018-09-03T17:53:08.504Z,22.25
2018-09-03T17:58:04.498Z,22.36
2018-09-03T18:03:00.052Z,22.23
2018-09-03T18:07:55.919Z,22.22
2018-09-03T18:12:52.059Z,22.22
2018-09-03T18:17:48.949Z,22.25
2018-09-03T18:22:45.140Z,22.28
2018-09-03T18:27:40.863Z,22.25
2018-09-03T18:32:36.861Z,22.22
2018-09-03T18:37:32.695Z,22.17
2018-09-03T18:42:28.881Z,22.20
2018-09-03T18:47:24.803Z,22.13
2018-09-03T18:52:20.960Z,22.15
2018-09-03T18:57:18.022Z,22.10
2018-09-03T19:02:15.016Z,22.11
2018-09-03T19:07:10.586Z,22.07
2018-09-03T19:12:06.877Z,21.99
2018-09-03T19:17:03.745Z,21.98
2018-09-03T19:21:59.445Z,22.02
2018-09-03T19:26:55.619Z,21.92
2018-09-03T19:31:52.908Z,21.95
2018-09-03T19:36:48.758Z,21.89
2018-09-03T19:41:44.739Z,21.91
2018-09-03T19:46:41.796Z,21.87
2018-09-03T19:51:38.621Z,21.77
2018-09-03T19:56:35.368Z,21.76
2018-09-03T20:01:30.983Z,21.79
2018-09-03T20:06:26.982Z,21.66
2018-09-03T20:11:22.829Z,21.67
2018-09-03T20:16:18.957Z,21.75
2018-09-03T20:21:15.693Z,21.70
2018-09-03T20:26:11.299Z,21.67
2018-09-03T20:31:07.287Z,21.70
2018-09-03T20:36:04.699Z,21.57
2018-09-03T20:41:01.269Z,21.55
2018-09-03T20:45:56.913Z,21.48
2018-09-03T20:50:54.048Z,21.48
2018-09-03T20:55:50.535Z,21.45
2018-09-03T21:00:46.477Z,21.51
2018-09-03T21:05:42.033Z,21.43
2018-09-03T21:10:37.927Z,21.43
2018-09-03T21:15:33.770Z,21.27
2018-09-03T21:20:30.605Z,21.17
2018-09-03T21:25:26.245Z,21.09
2018-09-03T21:30:23.052Z,21.11
2018-09-03T21:35:18.510Z,21.05
2018-09-03T21:40:14.292Z,21.02
2018-09-03T21:45:10.550Z,20.93
2018-09-03T21:50:07.621Z,20.87
2018-09-03T21:55:02.968Z,20.84
2018-09-03T21:59:59.236Z,20.84
2018-09-03T22:04:56.145Z,20.84
2018-09-03T22:09:52.551Z,20.81
2018-09-03T22:14:48.470Z,20.67
2018-09-03T22:19:44.215Z,20.60
2018-09-03T22:24:39.961Z,20.52
2018-09-03T22:29:35.832Z,20.43
2018-09-03T22:34:31.739Z,20.48
2018-09-03T22:39:27.474Z,20.39
2018-09-03T22:44:23.369Z,20.47
2018-09-03T22:49:19.347Z,20.43
2018-09-03T22:54:16.583Z,20.41
2018-09-03T22:59:12.403Z,20.41
2018-09-03T23:04:08.382Z,20.50
2018-09-03T23:09:04.227Z,20.50
2018-09-03T23:14:00.446Z,20.47
2018-09-03T23:18:57.409Z,20.51
2018-09-03T23:23:53.125Z,20.48
2018-09-03T23:28:50.096Z,20.32
2018-09-03T23:33:45.614Z,20.29
2018-09-03T23:38:41.405Z,20.24
2018-09-03T23:43:37.175Z,20.28
2018-09-03T23:48:33.445Z,20.00
2018-09-03T23:53:29.192Z,19.96
2018-09-03T23:58:25.591Z,19.85
